< < Back
Terminal Aerodrome Forecast


Current Version              Previous Versions:   1  2  3  4  5  6  7  8  9  

Terminal Aerodrome Forecast

826
FTUS42 KGSP 291724
TAFCLT
TAF
KCLT 291724Z 2918/3018 29006KT P6SM SCT050 SCT250
     FM292100 28009KT P6SM VCSH BKN060 BKN250
     FM300000 26003KT P6SM BKN060
     FM300600 26003KT P6SM SCT060
     FM301200 28004KT P6SM BKN250=

Latest METAR

504
SAUS70 KWBC 291800 RRD
MTRCLT
METAR KCLT 291752Z 29009KT 10SM SCT050 SCT250 33/18 A2996 RMK AO2 SLP135
T03330178 10339 20256 58007


USA.gov is the U.S. government's official web portal to all federal, state and local government web resources and services.